Mackville, Kentucky
Current Conditions -  °F | °C
As of 8:55 AM on Monday 24 Nov 2014 (Local Time) from K6I2 Reporting Station
Broken Clouds Broken Clouds  
Wind Chill: 63°   Ceiling: 7000
Heat Index: 63°   Visibility: 10mi
Dew Point: 48°   Wind: 30mph
Humidity: 59%   Direction: 210°SSW
Pressure: 29.48"   Gusts: 48mph
Location:  37.74°N, 85.07°W
Report Text: K6I2 241355Z AUTO 21026G42KT 10SM FEW038 SCT045 BKN070 17/09 A2948 RMK AO2
Loading
Personal Weather Stations






























Interactive Weather Map New forecast layout! Learn more

10-Day Weather Forecast

Advertisements
Track Severe Weather on mobile